createdAt,value
2018-01-11T00:00:31.244Z,85.21
2018-01-11T00:01:30.460Z,85
2018-01-11T00:02:30.690Z,85.09
2018-01-11T00:03:30.857Z,84.9
2018-01-11T00:04:31.268Z,84.95
2018-01-11T00:05:30.560Z,84.85
2018-01-11T00:06:30.686Z,85.11
2018-01-11T00:07:31.012Z,85.08
2018-01-11T00:08:30.451Z,84.99
2018-01-11T00:09:30.720Z,84.99
2018-01-11T00:10:30.943Z,85.35
2018-01-11T00:11:30.340Z,85.01
2018-01-11T00:12:30.558Z,85.3
2018-01-11T00:13:30.820Z,85.18
2018-01-11T00:14:29.974Z,85.37
2018-01-11T00:15:30.233Z,85.65
2018-01-11T00:16:30.650Z,85.21
2018-01-11T00:17:30.695Z,85.4
2018-01-11T00:18:30.698Z,85.19
2018-01-11T00:19:29.965Z,85.38
2018-01-11T00:20:30.129Z,85
2018-01-11T00:21:30.146Z,84.99
2018-01-11T00:22:30.346Z,85.02
2018-01-11T00:23:30.435Z,85.3
2018-01-11T00:24:30.770Z,85.75
2018-01-11T00:25:30.146Z,85.6
2018-01-11T00:26:30.474Z,85.33
2018-01-11T00:27:30.831Z,85.45
2018-01-11T00:28:30.148Z,85.35
2018-01-11T00:29:30.359Z,84.94
2018-01-11T00:30:30.697Z,85.71
2018-01-11T00:31:29.959Z,85.6
2018-01-11T00:32:30.284Z,85.7
2018-01-11T00:33:30.674Z,85.56
2018-01-11T00:34:29.842Z,85.32
2018-01-11T00:35:30.195Z,85.3
2018-01-11T00:36:30.419Z,85.38
2018-01-11T00:37:30.645Z,85.43
2018-01-11T00:38:30.111Z,85.35
2018-01-11T00:39:30.392Z,85.12
2018-01-11T00:40:30.560Z,85.05
2018-01-11T00:41:29.851Z,85.54
2018-01-11T00:42:30.140Z,85.62
2018-01-11T00:43:30.500Z,85.72
2018-01-11T00:44:29.999Z,85.44
2018-01-11T00:45:30.428Z,85.74
2018-01-11T00:46:30.708Z,86.03
2018-01-11T00:47:29.921Z,85.93
2018-01-11T00:48:29.977Z,85.67
2018-01-11T00:49:30.295Z,85.98
2018-01-11T00:50:30.453Z,86.28
2018-01-11T00:51:30.548Z,86.29
2018-01-11T00:52:29.879Z,85.74
2018-01-11T00:53:30.124Z,85.78
2018-01-11T00:54:30.545Z,85.95
2018-01-11T00:55:30.804Z,85.95
2018-01-11T00:56:29.903Z,85.89
2018-01-11T00:57:30.196Z,86.02
2018-01-11T00:58:30.329Z,86.05
2018-01-11T00:59:30.597Z,86.22
2018-01-11T01:00:30.877Z,86.39
2018-01-11T01:01:30.080Z,86.52
2018-01-11T01:02:30.376Z,86.68
2018-01-11T01:03:30.807Z,86.49
2018-01-11T01:04:29.920Z,86.72
2018-01-11T01:05:30.218Z,86.58
2018-01-11T01:06:30.505Z,86.64
2018-01-11T01:07:29.892Z,86.94
2018-01-11T01:08:30.271Z,86.59
2018-01-11T01:09:30.628Z,86.94
2018-01-11T01:10:29.886Z,86.79
2018-01-11T01:11:30.030Z,87
2018-01-11T01:12:30.551Z,86.79
2018-01-11T01:13:30.770Z,86.57
2018-01-11T01:14:30.458Z,86.82
2018-01-11T01:15:30.579Z,86.7
2018-01-11T01:16:30.931Z,86.84
2018-01-11T01:17:31.341Z,86.88
2018-01-11T01:18:30.450Z,86.98
2018-01-11T01:19:30.749Z,86.77
2018-01-11T01:20:31.038Z,87.03
2018-01-11T01:21:31.476Z,87.32
2018-01-11T01:22:30.888Z,87.17
2018-01-11T01:23:31.092Z,86.95
2018-01-11T01:24:31.285Z,86.76
2018-01-11T01:25:31.051Z,86.73
2018-01-11T01:26:31.377Z,86.74
2018-01-11T01:27:30.746Z,86.85
2018-01-11T01:28:31.162Z,86.62
2018-01-11T01:29:30.488Z,86.49
2018-01-11T01:30:30.739Z,86.89
2018-01-11T01:31:30.977Z,86.96
2018-01-11T01:32:31.417Z,86.79
2018-01-11T01:33:30.840Z,86.75
2018-01-11T01:36:31.455Z,86.5
2018-01-11T01:37:30.662Z,86.44
2018-01-11T01:38:30.876Z,86.37
2018-01-11T01:39:31.007Z,86.7
2018-01-11T01:40:31.334Z,86.58
2018-01-11T01:41:30.635Z,86.59
2018-01-11T01:42:31.009Z,86.63
2018-01-11T01:43:31.308Z,86.53
2018-01-11T01:44:30.518Z,86.33
2018-01-11T01:45:29.740Z,86.69
2018-01-11T01:46:30.225Z,86.54
2018-01-11T01:47:29.585Z,86.97
2018-01-11T01:48:29.894Z,86.75
2018-01-11T01:49:30.208Z,86.45
2018-01-11T01:50:30.413Z,86.7
2018-01-11T01:51:29.539Z,86.71
2018-01-11T01:52:29.891Z,86.63
2018-01-11T01:53:30.249Z,86.56
2018-01-11T01:54:29.563Z,86.72
2018-01-11T01:55:29.742Z,86.43
2018-01-11T01:56:29.771Z,86.45
2018-01-11T01:57:30.245Z,85.88
2018-01-11T01:58:29.625Z,86.23
2018-01-11T01:59:29.947Z,86.4
2018-01-11T02:00:30.194Z,85.94
2018-01-11T02:01:30.315Z,86.02
2018-01-11T02:02:29.528Z,86.22
2018-01-11T02:03:29.783Z,86.34
2018-01-11T02:04:30.030Z,86.22
2018-01-11T02:05:30.181Z,85.99
2018-01-11T02:06:30.432Z,85.85
2018-01-11T02:07:29.856Z,86.33
2018-01-11T02:08:29.835Z,86.17
2018-01-11T02:09:30.054Z,85.81
2018-01-11T02:10:30.148Z,86.14
2018-01-11T02:11:30.752Z,85.71
2018-01-11T02:12:29.700Z,85.91
2018-01-11T02:13:29.924Z,85.74
2018-01-11T02:14:30.173Z,85.71
2018-01-11T02:15:30.263Z,85.69
2018-01-11T02:16:30.658Z,85.77
2018-01-11T02:17:31.013Z,86.08
2018-01-11T02:18:30.251Z,85.91
2018-01-11T02:19:31.221Z,86.09
2018-01-11T02:20:30.490Z,86.29
2018-01-11T02:21:30.532Z,86.06
2018-01-11T02:22:30.652Z,86.2
2018-01-11T02:23:30.899Z,86.12
2018-01-11T02:24:31.065Z,86.21
2018-01-11T02:25:30.469Z,86.33
2018-01-11T02:26:30.807Z,86.7
2018-01-11T02:27:31.098Z,86.32
2018-01-11T02:29:34.566Z,86.46
2018-01-11T02:30:30.980Z,86.34
2018-01-11T02:31:30.257Z,86.59
2018-01-11T02:32:30.479Z,86.8
2018-01-11T02:33:30.752Z,86.59
2018-01-11T02:34:31.081Z,86.53
2018-01-11T02:35:30.712Z,86.54
2018-01-11T02:36:30.853Z,86.47
2018-01-11T02:37:31.074Z,86.76
2018-01-11T02:38:30.342Z,86.84
2018-01-11T02:39:30.731Z,86.64
2018-01-11T02:40:30.992Z,86.67
2018-01-11T02:41:31.126Z,86.43
2018-01-11T02:42:30.456Z,86.9
2018-01-11T02:43:30.708Z,86.69
2018-01-11T02:45:30.899Z,86.71
2018-01-11T02:46:30.324Z,86.68
2018-01-11T02:47:30.477Z,86.85
2018-01-11T02:48:30.539Z,86.84
2018-01-11T02:49:30.780Z,87.09
2018-01-11T02:50:30.106Z,86.72
2018-01-11T02:51:30.307Z,87.11
2018-01-11T02:52:30.456Z,86.89
2018-01-11T02:53:30.637Z,86.74
2018-01-11T02:54:29.928Z,87.03
2018-01-11T02:55:30.126Z,86.78
2018-01-11T02:56:30.403Z,86.47
2018-01-11T02:57:30.740Z,86.09
2018-01-11T02:58:29.894Z,86.59
2018-01-11T02:59:30.163Z,86.4
2018-01-11T03:00:30.572Z,86.29
2018-01-11T03:01:30.057Z,86.64
2018-01-11T03:02:30.339Z,86.55
2018-01-11T03:03:30.571Z,86.56
2018-01-11T03:04:29.851Z,86.6
2018-01-11T03:05:30.094Z,86.35
2018-01-11T03:06:30.465Z,86.61
2018-01-11T03:07:29.890Z,86.76
2018-01-11T03:08:30.208Z,86.19
2018-01-11T03:09:30.517Z,86.28
2018-01-11T03:10:30.831Z,86.38
2018-01-11T03:11:30.169Z,86.27
2018-01-11T03:12:30.601Z,86.11
2018-01-11T03:13:29.964Z,86.01
2018-01-11T03:14:30.376Z,86.31
2018-01-11T03:15:30.660Z,86.74
2018-01-11T03:16:30.250Z,86.6
2018-01-11T03:17:30.647Z,86.79
2018-01-11T03:18:31.001Z,86.81
2018-01-11T03:19:30.281Z,87.16
2018-01-11T03:20:30.579Z,87.13
2018-01-11T03:21:30.934Z,86.91
2018-01-11T03:22:30.430Z,87.17
2018-01-11T03:23:30.727Z,86.87
2018-01-11T03:24:30.915Z,86.64
2018-01-11T03:25:30.252Z,86.95
2018-01-11T03:26:30.543Z,87
2018-01-11T03:27:30.972Z,86.52
2018-01-11T03:28:30.426Z,86.58
2018-01-11T03:29:30.599Z,86.72
2018-01-11T03:30:30.882Z,86.72
2018-01-11T03:31:31.173Z,86.55
2018-01-11T03:32:30.341Z,86.61
2018-01-11T03:33:30.897Z,86.5
2018-01-11T03:34:30.270Z,86.53
2018-01-11T03:35:30.810Z,86.48
2018-01-11T03:36:30.216Z,86.77
2018-01-11T03:37:30.513Z,86.57
2018-01-11T03:38:30.687Z,86.57
2018-01-11T03:39:30.866Z,86.69
2018-01-11T03:40:30.350Z,86.5
2018-01-11T03:41:30.571Z,86.61
2018-01-11T03:42:30.892Z,86.57
2018-01-11T03:43:30.386Z,86.55
2018-01-11T03:44:30.677Z,86.33
2018-01-11T03:45:31.116Z,86.53
2018-01-11T03:46:30.597Z,86.73
2018-01-11T03:47:30.046Z,87.25
2018-01-11T03:48:30.462Z,86.95
2018-01-11T03:49:29.792Z,87.24
2018-01-11T03:50:30.190Z,87.4
2018-01-11T03:51:30.503Z,87.11
2018-01-11T03:52:29.797Z,87.21
2018-01-11T03:53:30.098Z,87
2018-01-11T03:54:30.819Z,87.21
2018-01-11T03:55:30.050Z,87.3
2018-01-11T03:56:30.400Z,87.31
2018-01-11T03:57:29.824Z,87.25
2018-01-11T03:58:30.143Z,87.51
2018-01-11T03:59:30.458Z,87.16
2018-01-11T04:00:29.939Z,86.8
2018-01-11T04:01:30.289Z,86.6
2018-01-11T04:02:29.683Z,86.99
2018-01-11T04:03:29.985Z,86.79
2018-01-11T04:04:30.403Z,86.91
2018-01-11T04:05:29.968Z,87.28
2018-01-11T04:06:30.333Z,87.36
2018-01-11T04:07:30.538Z,87
2018-01-11T04:08:29.867Z,87.23
2018-01-11T04:09:29.967Z,86.97
2018-01-11T04:10:30.108Z,86.97
2018-01-11T04:11:30.260Z,86.87
2018-01-11T04:12:29.639Z,86.91
2018-01-11T04:13:29.772Z,86.88
2018-01-11T04:14:29.916Z,86.91
2018-01-11T04:15:30.229Z,87.03
2018-01-11T04:16:29.607Z,86.45
2018-01-11T04:17:29.794Z,87.08
2018-01-11T04:18:29.985Z,87.35
2018-01-11T04:19:30.343Z,87.51
2018-01-11T04:20:30.506Z,87.57
2018-01-11T04:21:30.531Z,87.49
2018-01-11T04:22:30.725Z,87.37
2018-01-11T04:23:29.994Z,86.88
2018-01-11T04:24:30.484Z,86.92
2018-01-11T04:25:30.653Z,86.6
2018-01-11T04:26:30.086Z,86.59
2018-01-11T04:27:30.160Z,86.64
2018-01-11T04:28:30.305Z,87
2018-01-11T04:29:30.631Z,87.03
2018-01-11T04:30:29.918Z,86.81
2018-01-11T04:31:30.032Z,86.92
2018-01-11T04:32:30.242Z,87.12
2018-01-11T04:33:30.371Z,87.12
2018-01-11T04:34:30.683Z,87.21
2018-01-11T04:35:30.073Z,87.6
2018-01-11T04:36:30.396Z,87.4
2018-01-11T04:37:30.803Z,87.13
2018-01-11T04:38:30.120Z,87.28
2018-01-11T04:39:30.484Z,87.7
2018-01-11T04:40:30.777Z,87.58
2018-01-11T04:41:30.009Z,87.71
2018-01-11T04:42:30.447Z,87.69
2018-01-11T04:43:30.715Z,87.92
2018-01-11T04:44:29.898Z,87.77
2018-01-11T04:45:30.213Z,87.71
2018-01-11T04:46:30.812Z,88.1
2018-01-11T04:47:30.122Z,88
2018-01-11T04:48:30.281Z,88.1
2018-01-11T04:49:30.432Z,87.94
2018-01-11T04:50:30.505Z,87.9
2018-01-11T04:51:30.839Z,88.02
2018-01-11T04:52:31.155Z,88.01
2018-01-11T04:53:30.341Z,88.42
2018-01-11T04:54:30.515Z,88.47
2018-01-11T04:55:30.693Z,88.3
2018-01-11T04:56:30.782Z,88.05
2018-01-11T04:57:31.026Z,88.1
2018-01-11T04:58:30.409Z,88.33
2018-01-11T04:59:30.652Z,88.31
2018-01-11T05:00:30.787Z,88.54
2018-01-11T05:01:30.912Z,88.35
2018-01-11T05:02:30.202Z,88.49
2018-01-11T05:03:30.477Z,88.81
2018-01-11T05:04:31.082Z,88.65
2018-01-11T05:05:30.758Z,88.85
2018-01-11T05:06:30.887Z,88.42
2018-01-11T05:07:31.041Z,88.78
2018-01-11T05:08:30.306Z,88.57
2018-01-11T05:09:30.683Z,89.03
2018-01-11T05:10:30.934Z,89.15
2018-01-11T05:11:31.078Z,88.62
2018-01-11T05:12:31.152Z,89.01
2018-01-11T05:13:30.520Z,89.37
2018-01-11T05:14:30.576Z,89.24
2018-01-11T05:15:30.726Z,89.84
2018-01-11T05:16:30.917Z,89.54
2018-01-11T05:17:31.221Z,89.47
2018-01-11T05:18:30.497Z,89.54
2018-01-11T05:19:30.765Z,89.7
2018-01-11T05:20:31.037Z,89.85
2018-01-11T05:21:31.458Z,89.92
2018-01-11T05:22:30.723Z,89.37
2018-01-11T05:23:30.964Z,89.83
2018-01-11T05:24:30.174Z,89.25
2018-01-11T05:25:30.191Z,89.33
2018-01-11T05:26:30.350Z,89.62
2018-01-11T05:27:30.843Z,90.08
2018-01-11T05:28:31.065Z,89.82
2018-01-11T05:29:31.181Z,89.7
2018-01-11T05:30:30.678Z,89.15
2018-01-11T05:31:30.928Z,89.13
2018-01-11T05:32:31.067Z,89.94
2018-01-11T05:33:30.237Z,89.84
2018-01-11T05:34:30.394Z,89.92
2018-01-11T05:35:30.631Z,89.2
2018-01-11T05:36:31.089Z,89.03
2018-01-11T05:37:30.402Z,89.2
2018-01-11T05:38:30.882Z,89.47
2018-01-11T05:39:31.119Z,89.32
2018-01-11T05:40:30.280Z,89.28
2018-01-11T05:41:30.666Z,89.2
2018-01-11T05:42:31.280Z,88.72
2018-01-11T05:43:30.881Z,88.59
2018-01-11T05:44:31.286Z,88.9
2018-01-11T05:45:30.664Z,89.04
2018-01-11T05:46:31.556Z,89.38
2018-01-11T05:47:30.716Z,89.01
2018-01-11T05:48:31.119Z,89.14
2018-01-11T05:49:30.198Z,89.24
2018-01-11T05:50:30.477Z,88.9
2018-01-11T05:51:30.647Z,89.22
2018-01-11T05:52:30.242Z,89.09
2018-01-11T05:53:30.437Z,88.71
2018-01-11T05:54:30.687Z,89.21
2018-01-11T05:55:31.012Z,88.41
2018-01-11T05:56:30.435Z,88.56
2018-01-11T05:57:30.878Z,88.96
2018-01-11T05:58:30.283Z,89.39
2018-01-11T05:59:30.585Z,88.99
2018-01-11T06:00:30.948Z,88.64
2018-01-11T06:01:30.103Z,88.84
2018-01-11T06:02:30.633Z,88.6
2018-01-11T06:03:30.125Z,88.2
2018-01-11T06:04:30.424Z,88.36
2018-01-11T06:05:30.661Z,88.13
2018-01-11T06:06:30.809Z,88.47
2018-01-11T06:07:30.073Z,88.64
2018-01-11T06:08:30.296Z,88.92
2018-01-11T06:09:30.490Z,88.5
2018-01-11T06:10:30.703Z,88.44
2018-01-11T06:11:30.879Z,88.09
2018-01-11T06:12:30.145Z,88.08
2018-01-11T06:13:30.255Z,88.34
2018-01-11T06:14:30.661Z,88.34
2018-01-11T06:15:30.783Z,88.33
2018-01-11T06:16:30.440Z,88.36
2018-01-11T06:17:30.304Z,88.34
2018-01-11T06:18:30.443Z,88.29
2018-01-11T06:19:30.852Z,88.52
2018-01-11T06:20:30.191Z,88.15
2018-01-11T06:21:30.356Z,88.14
2018-01-11T06:22:30.419Z,88.23
2018-01-11T06:23:30.612Z,88.03
2018-01-11T06:24:30.293Z,87.89
2018-01-11T06:25:30.658Z,87.98
2018-01-11T06:26:29.807Z,88.35
2018-01-11T06:27:30.108Z,88.5
2018-01-11T06:28:30.518Z,87.79
2018-01-11T06:29:30.029Z,88.16
2018-01-11T06:30:30.145Z,88.29
2018-01-11T06:31:30.338Z,87.86
2018-01-11T06:32:29.911Z,87.9
2018-01-11T06:33:30.053Z,87.97
2018-01-11T06:34:30.333Z,87.56
2018-01-11T06:35:29.817Z,88.04
2018-01-11T06:36:30.099Z,87.98
2018-01-11T06:37:30.420Z,87.58
2018-01-11T06:38:29.762Z,87.57
2018-01-11T06:39:30.066Z,87.66
2018-01-11T06:40:29.879Z,87.16
2018-01-11T06:41:30.116Z,87.22
2018-01-11T06:42:30.377Z,87.66
2018-01-11T06:43:30.669Z,87.74
2018-01-11T06:44:30.081Z,87.78
2018-01-11T06:45:30.631Z,87.94
2018-01-11T06:46:29.907Z,87.56
2018-01-11T06:47:30.071Z,87.6
2018-01-11T06:48:30.155Z,87.96
2018-01-11T06:49:30.430Z,87.77
2018-01-11T06:50:30.818Z,87.76
2018-01-11T06:51:30.122Z,87.74
2018-01-11T06:52:30.250Z,87.68
2018-01-11T06:53:30.417Z,87.52
2018-01-11T06:54:30.667Z,87.16
2018-01-11T06:55:30.137Z,87.53
2018-01-11T06:56:30.256Z,87.16
2018-01-11T06:57:30.517Z,87.56
2018-01-11T06:58:30.601Z,87.36
2018-01-11T06:59:29.743Z,87.44
2018-01-11T07:00:30.099Z,87.28
2018-01-11T07:01:30.380Z,86.8
2018-01-11T07:02:30.515Z,87.58
2018-01-11T07:03:29.873Z,87.4
2018-01-11T07:04:30.236Z,87.38
2018-01-11T07:05:30.521Z,87.27
2018-01-11T07:06:30.649Z,87.46
2018-01-11T07:07:29.984Z,87.2
2018-01-11T07:08:30.110Z,87.46
2018-01-11T07:09:30.235Z,87.13
2018-01-11T07:10:30.572Z,87.4
2018-01-11T07:11:29.736Z,87.09
2018-01-11T07:12:29.866Z,87.44
2018-01-11T07:13:30.004Z,87.04
2018-01-11T07:14:30.385Z,87.12
2018-01-11T07:15:30.699Z,87.73
2018-01-11T07:16:30.274Z,87.49
2018-01-11T07:17:30.422Z,87.15
2018-01-11T07:18:29.783Z,87.2
2018-01-11T07:19:30.173Z,86.84
2018-01-11T07:20:30.332Z,86.94
2018-01-11T07:21:30.812Z,87.03
2018-01-11T07:22:30.221Z,87.39
2018-01-11T07:23:30.597Z,87.36
2018-01-11T07:24:29.761Z,87.45
2018-01-11T07:25:29.944Z,87.33
2018-01-11T07:26:30.251Z,87.58
2018-01-11T07:27:30.579Z,87.85
2018-01-11T07:28:30.075Z,87.98
2018-01-11T07:29:30.296Z,87.67
2018-01-11T07:30:30.543Z,87.41
2018-01-11T07:31:29.861Z,87.53
2018-01-11T07:32:30.105Z,87.41
2018-01-11T07:33:30.500Z,87.71
2018-01-11T07:34:29.895Z,87.1
2018-01-11T07:35:30.924Z,87.16
2018-01-11T07:36:30.044Z,87.41
2018-01-11T07:37:30.208Z,87.14
2018-01-11T07:38:30.281Z,87.25
2018-01-11T07:39:29.814Z,86.92
2018-01-11T07:40:30.274Z,87.24
2018-01-11T07:41:30.476Z,87.42
2018-01-11T07:42:29.894Z,87.32
2018-01-11T07:43:30.089Z,87.94
2018-01-11T07:44:30.294Z,87.95
2018-01-11T07:45:30.548Z,88.11
2018-01-11T07:46:30.586Z,87.81
2018-01-11T07:47:29.833Z,87.46
2018-01-11T07:48:29.949Z,87.38
2018-01-11T07:49:30.152Z,87.69
2018-01-11T07:50:30.380Z,87.44
2018-01-11T07:51:30.557Z,87.18
2018-01-11T07:52:29.802Z,87.59
2018-01-11T07:53:30.038Z,87.51
2018-01-11T07:54:30.197Z,87.45
2018-01-11T07:55:30.541Z,87.4
2018-01-11T07:56:29.825Z,87.28
2018-01-11T07:57:30.151Z,87.13
2018-01-11T07:58:30.327Z,87.05
2018-01-11T07:59:30.605Z,86.9
2018-01-11T08:00:30.103Z,87.25
2018-01-11T08:01:30.249Z,86.88
2018-01-11T08:02:30.550Z,86.84
2018-01-11T08:03:29.900Z,86.76
2018-01-11T08:04:30.160Z,86.72
2018-01-11T08:05:30.356Z,86.99
2018-01-11T08:06:30.448Z,86.9
2018-01-11T08:07:30.573Z,87.05
2018-01-11T08:08:29.947Z,86.95
2018-01-11T08:09:30.453Z,86.64
2018-01-11T08:10:29.834Z,86.88
2018-01-11T08:11:30.365Z,86.51
2018-01-11T08:12:30.685Z,86.78
2018-01-11T08:13:30.086Z,86.2
2018-01-11T08:14:30.491Z,86.54
2018-01-11T08:15:29.895Z,86.5
2018-01-11T08:16:30.204Z,86.26
2018-01-11T08:17:30.481Z,86.62
2018-01-11T08:18:29.899Z,86.55
2018-01-11T08:19:30.082Z,86.17
2018-01-11T08:20:30.385Z,86.42
2018-01-11T08:21:30.525Z,86.2
2018-01-11T08:22:30.156Z,86.69
2018-01-11T08:23:30.269Z,86.22
2018-01-11T08:24:30.550Z,86.01
2018-01-11T08:25:30.906Z,86.21
2018-01-11T08:26:30.185Z,86.41
2018-01-11T08:27:30.497Z,86.49
2018-01-11T08:28:30.661Z,86.68
2018-01-11T08:29:30.899Z,86.79
2018-01-11T08:30:30.347Z,86.63
2018-01-11T08:31:30.767Z,86.63
2018-01-11T08:32:30.774Z,86.59
2018-01-11T08:33:30.147Z,86.73
2018-01-11T08:34:30.165Z,86.66
2018-01-11T08:35:30.504Z,86.5
2018-01-11T08:36:30.716Z,86.47
2018-01-11T08:37:30.848Z,86.62
2018-01-11T08:38:31.139Z,86.3
2018-01-11T08:39:30.340Z,86.24
2018-01-11T08:40:30.758Z,86.66
2018-01-11T08:41:31.070Z,86.32
2018-01-11T08:42:30.142Z,85.7
2018-01-11T08:43:30.347Z,86
2018-01-11T08:44:30.755Z,85.63
2018-01-11T08:45:30.822Z,85.71
2018-01-11T08:46:31.070Z,85.74
2018-01-11T08:47:30.310Z,86.17
2018-01-11T08:48:30.603Z,85.22
2018-01-11T08:49:30.911Z,85.24
2018-01-11T08:50:30.201Z,85.31
2018-01-11T08:51:30.527Z,85.66
2018-01-11T08:52:30.906Z,85.47
2018-01-11T08:53:30.114Z,85.44
2018-01-11T08:54:30.238Z,85.19
2018-01-11T08:55:30.688Z,85.36
2018-01-11T08:56:29.961Z,85.51
2018-01-11T08:57:30.219Z,85.39
2018-01-11T08:58:30.628Z,85.22
2018-01-11T08:59:30.832Z,85.52
2018-01-11T09:00:30.032Z,84.97
2018-01-11T09:01:29.946Z,84.63
2018-01-11T09:02:30.006Z,85.27
2018-01-11T09:03:30.157Z,84.53
2018-01-11T09:04:30.244Z,84.92
2018-01-11T09:05:30.209Z,85.23
2018-01-11T09:06:30.736Z,85.36
2018-01-11T09:07:30.047Z,85.21
2018-01-11T09:08:30.597Z,84.87
2018-01-11T09:09:30.831Z,84.79
2018-01-11T09:10:30.157Z,84.74
2018-01-11T09:11:30.527Z,84.76
2018-01-11T09:12:30.772Z,84.95
2018-01-11T09:13:30.007Z,84.95
2018-01-11T09:14:30.360Z,84.84
2018-01-11T09:15:30.539Z,84.72
2018-01-11T09:16:30.902Z,84.3
2018-01-11T09:17:30.403Z,84.65
2018-01-11T09:18:30.517Z,84.8
2018-01-11T09:19:30.972Z,84.32
2018-01-11T09:20:30.057Z,84.46
2018-01-11T09:21:30.321Z,84.8
2018-01-11T09:22:30.620Z,84.59
2018-01-11T09:23:30.908Z,84.75
2018-01-11T09:24:29.956Z,84.52
2018-01-11T09:25:30.312Z,84.18
2018-01-11T09:26:30.520Z,84.22
2018-01-11T09:27:30.753Z,84.34
2018-01-11T09:28:30.089Z,84.54
2018-01-11T09:29:30.403Z,84.67
2018-01-11T09:30:30.967Z,84.14
2018-01-11T09:31:30.430Z,84.07
2018-01-11T09:32:30.702Z,83.64
2018-01-11T09:33:30.826Z,83.96
2018-01-11T09:34:30.113Z,83.04
2018-01-11T09:35:30.475Z,83.49
2018-01-11T09:36:30.695Z,83.53
2018-01-11T09:37:30.180Z,83.49
2018-01-11T09:38:30.497Z,83.37
2018-01-11T09:39:30.852Z,83.73
2018-01-11T09:40:30.252Z,83.81
2018-01-11T09:41:30.540Z,83.72
2018-01-11T09:42:29.848Z,83.86
2018-01-11T09:43:30.261Z,83.95
2018-01-11T09:44:30.305Z,83.92
2018-01-11T09:45:30.513Z,83.87
2018-01-11T09:46:30.665Z,83.67
2018-01-11T09:47:30.719Z,83.45
2018-01-11T09:48:30.212Z,83.64
2018-01-11T09:49:30.463Z,83.86
2018-01-11T09:50:30.685Z,83.58
2018-01-11T09:51:30.721Z,83.71
2018-01-11T09:52:30.846Z,83.34
2018-01-11T09:53:30.102Z,83.47
2018-01-11T09:54:30.447Z,83.56
2018-01-11T09:55:30.647Z,83.49
2018-01-11T09:56:30.837Z,83.72
2018-01-11T09:57:31.032Z,82.94
2018-01-11T09:58:31.132Z,83.13
2018-01-11T09:59:31.161Z,83.25
2018-01-11T10:00:31.308Z,83.6
2018-01-11T10:01:30.672Z,83.71
2018-01-11T10:02:30.900Z,83.36
2018-01-11T10:03:31.077Z,83.47
2018-01-11T10:04:31.162Z,82.78
2018-01-11T10:05:32.187Z,82.6
2018-01-11T10:06:31.144Z,82.66
2018-01-11T10:07:30.575Z,82.32
2018-01-11T10:08:30.853Z,82.83
2018-01-11T10:09:30.552Z,82.79
2018-01-11T10:10:30.909Z,82.49
2018-01-11T10:11:30.960Z,82.45
2018-01-11T10:12:31.265Z,82.58
2018-01-11T10:13:30.375Z,82.73
2018-01-11T10:14:30.734Z,82.68
2018-01-11T10:15:30.960Z,82.66
2018-01-11T10:16:31.435Z,82.37
2018-01-11T10:17:30.711Z,82.16
2018-01-11T10:18:30.613Z,82.03
2018-01-11T10:19:30.976Z,82.72
2018-01-11T10:20:31.026Z,82.84
2018-01-11T10:21:30.360Z,82.54
2018-01-11T10:22:31.331Z,82.45
2018-01-11T10:23:30.954Z,82.82
2018-01-11T10:24:31.348Z,82.96
2018-01-11T10:25:30.792Z,82.64
2018-01-11T10:26:31.217Z,82.46
2018-01-11T10:27:31.328Z,82.41
2018-01-11T10:28:30.692Z,82.53
2018-01-11T10:29:30.939Z,82.45
2018-01-11T10:30:31.049Z,82.55
2018-01-11T10:31:30.702Z,82.61
2018-01-11T10:32:30.663Z,82.56
2018-01-11T10:33:31.292Z,82.63
2018-01-11T10:34:30.350Z,82.31
2018-01-11T10:35:30.535Z,82.35
2018-01-11T10:36:32.297Z,82.3
2018-01-11T10:37:32.884Z,82.44
2018-01-11T10:38:31.124Z,82.77
2018-01-11T10:39:31.258Z,82.35
2018-01-11T10:40:30.413Z,82.58
2018-01-11T10:41:30.524Z,82.62
2018-01-11T10:42:30.875Z,82.82
2018-01-11T10:43:31.100Z,82.52
2018-01-11T10:44:30.332Z,82.41
2018-01-11T10:45:30.674Z,82.72
2018-01-11T10:46:30.818Z,82.3
2018-01-11T10:47:31.092Z,82.55
2018-01-11T10:48:31.289Z,82.67
2018-01-11T10:49:30.853Z,83.04
2018-01-11T10:50:31.142Z,82.75
2018-01-11T10:51:30.247Z,82.83
2018-01-11T10:52:30.308Z,82.76
2018-01-11T10:53:30.491Z,82.45
2018-01-11T10:54:30.638Z,82.35
2018-01-11T10:55:31.049Z,81.97
2018-01-11T10:56:30.508Z,81.67
2018-01-11T10:57:30.547Z,82.41
2018-01-11T10:58:30.702Z,82.05
2018-01-11T10:59:30.135Z,82.54
2018-01-11T11:00:30.668Z,82.19
2018-01-11T11:01:30.821Z,82.33
2018-01-11T11:02:30.060Z,82.07
2018-01-11T11:03:30.239Z,83.13
2018-01-11T11:04:30.391Z,82.59
2018-01-11T11:05:30.730Z,82.89
2018-01-11T11:06:30.844Z,82.32
2018-01-11T11:07:30.168Z,82.13
2018-01-11T11:08:30.353Z,82.09
2018-01-11T11:09:30.526Z,82.4
2018-01-11T11:10:30.673Z,82.53
2018-01-11T11:11:30.990Z,82.57
2018-01-11T11:12:30.441Z,82.16
2018-01-11T11:13:30.838Z,82.08
2018-01-11T11:14:30.139Z,82.33
2018-01-11T11:15:30.415Z,82.46
2018-01-11T11:16:30.754Z,81.86
2018-01-11T11:17:30.378Z,81.59
2018-01-11T11:18:30.548Z,81.34
2018-01-11T11:19:30.633Z,81.69
2018-01-11T11:20:30.875Z,82.01
2018-01-11T11:21:30.093Z,82.19
2018-01-11T11:22:30.168Z,82.43
2018-01-11T11:23:30.506Z,82.23
2018-01-11T11:24:30.701Z,81.57
2018-01-11T11:25:31.167Z,82.01
2018-01-11T11:26:30.587Z,82.27
2018-01-11T11:27:29.857Z,82.11
2018-01-11T11:28:30.122Z,81.9
2018-01-11T11:29:30.401Z,82.42
2018-01-11T11:30:29.561Z,82.19
2018-01-11T11:31:30.286Z,81.92
2018-01-11T11:32:29.999Z,81.79
2018-01-11T11:33:30.508Z,82.03
2018-01-11T11:34:30.066Z,82.09
2018-01-11T11:35:30.396Z,81.45
2018-01-11T11:36:29.683Z,81.83
2018-01-11T11:37:29.852Z,82.09
2018-01-11T11:38:30.269Z,82.82
2018-01-11T11:39:29.684Z,83.39
2018-01-11T11:40:29.939Z,82.8
2018-01-11T11:41:30.277Z,83.1
2018-01-11T11:42:29.905Z,83.32
2018-01-11T11:43:30.041Z,83.4
2018-01-11T11:44:30.239Z,83.64
2018-01-11T11:45:29.692Z,84.13
2018-01-11T11:46:29.997Z,83.8
2018-01-11T11:47:30.322Z,83.62
2018-01-11T11:48:29.578Z,83.62
2018-01-11T11:49:29.901Z,83.54
2018-01-11T11:50:29.562Z,84.3
2018-01-11T11:51:29.722Z,83.75
2018-01-11T11:52:29.922Z,83.94
2018-01-11T11:53:30.386Z,84.34
2018-01-11T11:54:29.639Z,84.46
2018-01-11T11:55:30.084Z,84.41
2018-01-11T11:56:29.568Z,84.37
2018-01-11T11:57:30.090Z,83.94
2018-01-11T11:58:30.410Z,84.37
2018-01-11T11:59:30.850Z,84.37
2018-01-11T12:00:30.403Z,83.53
2018-01-11T12:01:30.786Z,84.1
2018-01-11T12:02:30.230Z,84.95
2018-01-11T12:03:31.133Z,85.18
2018-01-11T12:04:30.521Z,85.88
2018-01-11T12:05:30.910Z,86.11
2018-01-11T12:06:30.109Z,85.7
2018-01-11T12:07:30.277Z,86.12
2018-01-11T12:08:30.736Z,86.37
2018-01-11T12:09:30.093Z,85.85
2018-01-11T12:10:30.516Z,85.42
2018-01-11T12:11:30.918Z,85.06
2018-01-11T12:12:30.192Z,84.8
2018-01-11T12:13:30.761Z,84.67
2018-01-11T12:14:30.076Z,85.61
2018-01-11T12:15:30.248Z,85.34
2018-01-11T12:16:30.445Z,85.14
2018-01-11T12:17:32.757Z,85.35
2018-01-11T12:18:30.418Z,83.8
2018-01-11T12:19:30.624Z,83.61
2018-01-11T12:20:30.048Z,83.47
2018-01-11T12:21:30.654Z,84.14
2018-01-11T12:22:31.342Z,84.15
2018-01-11T12:23:30.764Z,84.3
2018-01-11T12:24:30.236Z,84.03
2018-01-11T12:25:30.648Z,82.86
2018-01-11T12:26:30.021Z,83.11
2018-01-11T12:27:30.526Z,83.1
2018-01-11T12:28:31.529Z,83.35
2018-01-11T12:29:30.868Z,84.08
2018-01-11T12:30:31.470Z,84.21
2018-01-11T12:31:31.430Z,83.93
2018-01-11T12:32:30.996Z,84.36
2018-01-11T12:33:31.376Z,83.89
2018-01-11T12:34:30.735Z,83.61
2018-01-11T12:35:31.193Z,84.29
2018-01-11T12:36:30.556Z,84.42
2018-01-11T12:37:30.831Z,84.11
2018-01-11T12:38:53.098Z,83.94
2018-01-11T12:39:31.305Z,84.51
2018-01-11T12:40:30.673Z,84.14
2018-01-11T12:41:31.080Z,83.9
2018-01-11T12:42:30.578Z,83.9
2018-01-11T12:43:30.886Z,84.6
2018-01-11T12:44:31.274Z,84.2
2018-01-11T12:45:30.668Z,84.51
2018-01-11T12:46:30.880Z,84.84
2018-01-11T12:47:31.156Z,84.33
2018-01-11T12:48:30.540Z,84.4
2018-01-11T12:49:31.016Z,84.79
2018-01-11T12:50:30.537Z,84.17
2018-01-11T12:51:30.989Z,84.9
2018-01-11T12:52:31.268Z,85
2018-01-11T12:53:30.808Z,84.91
2018-01-11T12:54:31.200Z,85.1
2018-01-11T12:55:31.100Z,85.38
2018-01-11T12:56:30.577Z,85.49
2018-01-11T12:57:31.148Z,85.45
2018-01-11T12:58:30.567Z,85.29
2018-01-11T12:59:30.896Z,85.35
2018-01-11T13:00:30.208Z,85.33